Time;durP1;ratioP1;P1;durP2;ratioP2;P2;SDS_P1;SDS_P2;PMS_P1;PMS_P2;Temp;Humidity;BMP_temperature;BMP_pressure;BME280_temperature;BME280_humidity;BME280_pressure;Samples;Min_cycle;Max_cycle;Signal;HPM_P1;HPM_P2
2021/05/05 00:01:26;;;;;;;3.05;1.00;;;;;;;6.17;77.75;100163.31;5134294;27;20023;-39
2021/05/05 00:03:51;;;;;;;2.73;1.00;;;;;;;6.17;77.90;100167.88;5134317;27;20058;-39
2021/05/05 00:06:17;;;;;;;2.73;1.13;;;;;;;6.15;77.93;100167.28;5134800;27;20030;-39
2021/05/05 00:08:43;;;;;;;3.67;1.48;;;;;;;6.16;78.68;100158.19;5134462;27;20135;-39
2021/05/05 00:11:09;;;;;;;3.33;1.10;;;;;;;6.14;78.53;100170.97;5134973;27;20027;-39
2021/05/05 00:13:34;;;;;;;3.45;1.38;;;;;;;6.12;78.81;100178.44;5134434;27;20071;-39
2021/05/05 00:16:00;;;;;;;4.32;1.05;;;;;;;6.11;78.94;100164.22;5134488;27;20114;-39
2021/05/05 00:18:26;;;;;;;3.08;0.85;;;;;;;6.14;78.67;100170.97;5134592;27;20108;-39
2021/05/05 00:20:51;;;;;;;5.13;1.33;;;;;;;6.11;79.28;100174.13;5134928;27;20062;-39
2021/05/05 00:23:16;;;;;;;3.73;1.40;;;;;;;6.12;79.25;100183.81;5134269;27;20351;-39
2021/05/05 00:25:42;;;;;;;4.10;1.20;;;;;;;6.14;78.53;100187.09;5134609;27;20024;-39
2021/05/05 00:28:07;;;;;;;3.10;1.10;;;;;;;6.14;78.57;100176.34;5134029;27;20069;-40
2021/05/05 00:30:33;;;;;;;3.27;1.10;;;;;;;6.13;78.80;100175.53;5134867;27;20019;-40
2021/05/05 00:32:58;;;;;;;3.47;0.90;;;;;;;6.15;78.17;100170.78;5134270;27;20031;-40
2021/05/05 00:35:23;;;;;;;4.73;1.10;;;;;;;6.18;78.64;100177.56;5134584;27;20072;-40
2021/05/05 00:37:49;;;;;;;2.57;0.90;;;;;;;6.22;78.48;100173.41;5133898;27;20596;-40
2021/05/05 00:40:15;;;;;;;3.43;1.20;;;;;;;6.12;79.32;100173.91;5133261;28;20023;-40
2021/05/05 00:42:41;;;;;;;2.80;1.33;;;;;;;6.14;79.48;100174.50;5134278;27;20020;-40
2021/05/05 00:45:09;;;;;;;7.65;1.73;;;;;;;6.12;79.37;100176.59;5133956;27;20467;-40
2021/05/05 00:47:35;;;;;;;4.63;1.30;;;;;;;6.12;79.40;100170.41;5134018;27;20026;-40
2021/05/05 00:50:01;;;;;;;4.93;1.60;;;;;;;6.10;79.66;100167.09;5134949;27;20031;-40
2021/05/05 00:52:27;;;;;;;3.70;1.27;;;;;;;6.10;79.74;100159.88;5134055;27;20100;-40
2021/05/05 00:54:53;;;;;;;2.80;1.10;;;;;;;6.05;79.84;100158.88;5133779;27;20055;-40
2021/05/05 00:57:19;;;;;;;5.20;1.40;;;;;;;6.06;79.56;100157.84;5134456;27;20088;-40
2021/05/05 00:59:44;;;;;;;;;;;;;;;6.14;78.72;100154.88;5134547;27;20064;-40
2021/05/05 01:02:10;;;;;;;3.05;1.10;;;;;;;6.10;79.23;100159.03;5135408;27;20332;-40
2021/05/05 01:04:35;;;;;;;1.90;0.90;;;;;;;6.06;78.95;100161.34;5138487;27;20054;-40
2021/05/05 01:07:01;;;;;;;3.53;1.05;;;;;;;6.06;78.59;100163.22;5137869;27;20023;-40
2021/05/05 01:09:27;;;;;;;4.27;1.27;;;;;;;6.07;78.61;100160.31;5138626;27;20436;-40
2021/05/05 01:11:54;;;;;;;5.60;1.40;;;;;;;6.01;78.71;100155.81;5137792;27;20031;-40
2021/05/05 01:14:21;;;;;;;4.43;1.77;;;;;;;6.03;78.65;100155.59;5137730;27;20076;-40
2021/05/05 01:16:46;;;;;;;3.20;1.33;;;;;;;6.02;78.93;100149.41;5137874;27;20043;-40
2021/05/05 01:19:12;;;;;;;4.73;1.20;;;;;;;5.99;78.79;100147.16;5137365;27;20031;-40
2021/05/05 01:21:37;;;;;;;4.30;1.17;;;;;;;5.99;78.06;100149.00;5137343;27;20023;-40
2021/05/05 01:24:04;;;;;;;5.30;1.20;;;;;;;5.96;78.12;100168.25;5137560;27;20024;-40
2021/05/05 01:26:30;;;;;;;3.28;1.17;;;;;;;5.93;78.83;100162.25;5138150;27;20019;-40
2021/05/05 01:28:58;;;;;;;3.85;1.40;;;;;;;5.90;79.21;100160.00;5137485;27;20027;-40
2021/05/05 01:31:24;;;;;;;3.45;1.38;;;;;;;5.89;79.84;100152.97;5138229;27;20035;-40
2021/05/05 01:33:49;;;;;;;2.53;1.05;;;;;;;5.86;79.80;100157.97;5137324;27;20465;-40
2021/05/05 01:36:18;;;;;;;3.30;1.23;;;;;;;5.83;80.23;100148.47;5137616;27;20034;-40
2021/05/05 01:38:43;;;;;;;4.20;1.30;;;;;;;5.81;80.22;100141.69;5136908;27;20049;-40
2021/05/05 01:41:08;;;;;;;3.40;1.40;;;;;;;5.81;80.31;100150.56;5137530;27;20439;-40
2021/05/05 01:43:34;;;;;;;3.77;1.43;;;;;;;5.78;81.28;100145.63;5136829;27;20674;-40
2021/05/05 01:45:59;;;;;;;2.97;1.30;;;;;;;5.81;80.72;100155.09;5137538;27;20467;-40
2021/05/05 01:48:25;;;;;;;6.80;2.07;;;;;;;5.81;80.33;100142.50;5137342;27;20268;-40
2021/05/05 01:50:50;;;;;;;4.63;1.40;;;;;;;5.82;80.77;100146.84;5137175;27;20027;-40
2021/05/05 01:53:16;;;;;;;4.57;1.43;;;;;;;5.78;80.82;100142.94;5136991;27;20024;-40
2021/05/05 01:55:42;;;;;;;;;;;;;;;5.86;79.99;100142.69;5138291;27;20054;-40
2021/05/05 01:58:08;;;;;;;2.67;1.23;;;;;;;5.81;80.41;100149.75;5136645;27;19907;-40
2021/05/05 02:00:34;;;;;;;3.63;1.30;;;;;;;5.79;80.75;100147.25;5136958;27;20383;-40
2021/05/05 02:02:59;;;;;;;3.78;1.40;;;;;;;5.77;80.66;100151.22;5136818;27;20104;-40
2021/05/05 02:05:25;;;;;;;5.03;1.20;;;;;;;5.75;80.86;100153.25;5136831;27;20379;-40
2021/05/05 02:07:50;;;;;;;2.80;1.20;;;;;;;5.74;80.31;100152.44;5136762;27;20062;-40
2021/05/05 02:10:18;;;;;;;3.17;1.17;;;;;;;5.74;80.38;100157.81;5136956;27;20027;-40
2021/05/05 02:12:44;;;;;;;4.40;1.20;;;;;;;5.74;80.07;100149.75;5135994;27;20031;-40
2021/05/05 02:15:12;;;;;;;4.75;1.38;;;;;;;5.75;79.95;100153.25;5136206;27;20027;-40
2021/05/05 02:17:38;;;;;;;4.07;1.33;;;;;;;5.72;80.13;100149.16;5136619;27;20400;-40
2021/05/05 02:20:05;;;;;;;2.90;1.25;;;;;;;5.72;80.02;100153.72;5136484;27;20029;-40
2021/05/05 02:22:31;;;;;;;3.10;1.40;;;;;;;5.71;80.09;100144.00;5136323;27;20076;-40
2021/05/05 02:24:56;;;;;;;3.97;1.47;;;;;;;5.69;80.08;100150.41;5137199;27;20015;-39
2021/05/05 02:27:21;;;;;;;2.70;1.20;;;;;;;5.63;80.41;100142.41;5136639;27;20521;-40
2021/05/05 02:29:47;;;;;;;4.17;1.23;;;;;;;5.67;81.01;100157.03;5136361;27;20112;-40
2021/05/05 02:32:15;;;;;;;2.78;1.42;;;;;;;5.64;81.11;100144.88;5135924;27;20031;-40
2021/05/05 02:34:41;;;;;;;3.00;1.55;;;;;;;5.58;81.73;100147.59;5136262;27;20034;-40
2021/05/05 02:37:09;;;;;;;3.27;1.60;;;;;;;5.58;81.25;100151.09;5135837;27;20027;-40
2021/05/05 02:39:35;;;;;;;3.22;1.40;;;;;;;5.58;81.58;100148.44;5135993;27;20264;-40
2021/05/05 02:42:01;;;;;;;3.28;1.33;;;;;;;5.56;82.02;100146.97;5136457;27;20075;-40
2021/05/05 02:44:26;;;;;;;3.50;1.67;;;;;;;5.57;81.54;100137.91;5136023;27;20030;-40
2021/05/05 02:46:52;;;;;;;2.77;1.40;;;;;;;5.56;81.48;100142.47;5136567;27;20296;-40
2021/05/05 02:49:17;;;;;;;3.33;1.77;;;;;;;5.54;81.56;100151.75;5136185;27;20478;-40
2021/05/05 02:51:42;;;;;;;2.63;1.37;;;;;;;5.55;81.71;100153.38;5136383;27;20054;-40
2021/05/05 02:54:08;;;;;;;3.73;1.70;;;;;;;5.54;81.75;100159.78;5135797;27;20419;-40
2021/05/05 02:56:33;;;;;;;3.77;1.80;;;;;;;5.54;81.88;100154.44;5136127;27;20057;-40
2021/05/05 02:58:58;;;;;;;4.37;1.53;;;;;;;5.56;81.99;100155.03;5135381;27;20029;-40
2021/05/05 03:01:24;;;;;;;3.90;1.70;;;;;;;5.53;81.82;100153.63;5136230;27;20058;-40
2021/05/05 03:03:49;;;;;;;3.67;2.10;;;;;;;5.55;82.09;100150.72;5135571;27;20070;-40
2021/05/05 03:06:14;;;;;;;3.63;1.83;;;;;;;5.55;81.78;100153.38;5135670;27;20024;-40
2021/05/05 03:08:40;;;;;;;5.83;1.87;;;;;;;5.47;82.00;100157.16;5135550;27;20033;-40
2021/05/05 03:11:05;;;;;;;4.47;2.47;;;;;;;5.48;81.98;100158.78;5135488;27;20029;-40
2021/05/05 03:13:31;;;;;;;3.53;2.17;;;;;;;5.47;82.14;100162.53;5135151;27;20027;-40
2021/05/05 03:15:57;;;;;;;4.87;2.60;;;;;;;5.46;81.81;100160.03;5136134;27;20019;-40
2021/05/05 03:18:22;;;;;;;4.68;2.45;;;;;;;5.40;82.20;100164.41;5136276;27;20043;-40
2021/05/05 03:20:47;;;;;;;4.33;2.73;;;;;;;5.41;81.84;100161.50;5135660;27;20075;-40
2021/05/05 03:23:13;;;;;;;4.67;2.40;;;;;;;5.39;82.09;100162.75;5135281;27;20073;-40
2021/05/05 03:25:40;;;;;;;5.00;2.60;;;;;;;5.35;81.56;100167.72;5134785;27;20297;-40
2021/05/05 03:28:05;;;;;;;4.47;2.53;;;;;;;5.33;81.93;100169.81;5133812;27;20056;-40
2021/05/05 03:30:31;;;;;;;3.63;2.63;;;;;;;5.36;82.09;100169.34;5135395;27;20027;-40
2021/05/05 03:32:56;;;;;;;4.23;2.60;;;;;;;5.34;81.76;100171.44;5134985;27;20031;-40
2021/05/05 03:35:21;;;;;;;4.17;2.70;;;;;;;5.30;82.28;100172.91;5135295;27;20046;-40
2021/05/05 03:37:47;;;;;;;6.73;2.43;;;;;;;5.31;82.00;100168.34;5134669;27;20098;-40
2021/05/05 03:40:12;;;;;;;5.03;2.70;;;;;;;5.28;82.25;100166.94;5135007;27;20027;-40
2021/05/05 03:42:38;;;;;;;6.93;2.73;;;;;;;5.35;82.51;100173.06;5134859;27;20031;-40
2021/05/05 03:45:05;;;;;;;4.90;3.13;;;;;;;5.32;82.65;100162.78;5135433;27;20263;-40
2021/05/05 03:47:31;;;;;;;5.18;2.65;;;;;;;5.36;82.89;100158.63;5134739;27;20027;-40
2021/05/05 03:49:56;;;;;;;5.67;3.40;;;;;;;5.35;82.92;100161.53;5135052;27;20374;-40
2021/05/05 03:52:22;;;;;;;5.33;3.40;;;;;;;5.34;83.40;100168.75;5135240;27;20053;-40
2021/05/05 03:54:47;;;;;;;4.73;3.13;;;;;;;5.41;83.01;100166.03;5134819;27;20460;-40
2021/05/05 03:57:12;;;;;;;5.40;3.37;;;;;;;5.43;83.03;100170.16;5135327;27;20088;-40
2021/05/05 03:59:38;;;;;;;4.93;3.30;;;;;;;5.45;83.10;100169.94;5134018;27;20410;-40
2021/05/05 04:02:03;;;;;;;5.43;3.03;;;;;;;5.43;83.29;100175.53;5134600;27;20398;-40
2021/05/05 04:04:28;;;;;;;6.50;3.03;;;;;;;5.48;83.59;100190.16;5134963;27;20025;-40
2021/05/05 04:06:54;;;;;;;3.53;2.90;;;;;;;5.47;83.81;100188.53;5134558;27;20037;-40
2021/05/05 04:09:19;;;;;;;4.00;2.60;;;;;;;5.49;83.82;100183.75;5134160;27;20023;-40
2021/05/05 04:11:45;;;;;;;7.40;2.63;;;;;;;5.49;83.66;100183.75;5134995;27;20027;-40
2021/05/05 04:14:11;;;;;;;4.50;2.30;;;;;;;5.49;83.34;100184.56;5134677;27;20075;-40
2021/05/05 04:16:36;;;;;;;5.60;2.22;;;;;;;5.43;82.91;100183.56;5134135;27;20268;-40
2021/05/05 04:19:02;;;;;;;6.27;1.87;;;;;;;5.46;82.26;100192.22;5134440;27;20031;-40
2021/05/05 04:21:27;;;;;;;5.80;1.73;;;;;;;5.41;82.37;100193.66;5134923;27;20028;-40
2021/05/05 04:23:53;;;;;;;5.47;1.70;;;;;;;5.38;82.53;100194.13;5134431;27;20027;-40
2021/05/05 04:26:19;;;;;;;6.50;2.35;;;;;;;5.40;82.06;100193.88;5134856;27;20439;-40
2021/05/05 04:28:45;;;;;;;6.25;2.45;;;;;;;5.40;82.41;100216.16;5134179;27;20109;-40
2021/05/05 04:31:10;;;;;;;4.97;1.75;;;;;;;5.41;82.26;100209.75;5134743;27;20467;-39
2021/05/05 04:33:36;;;;;;;6.20;1.53;;;;;;;5.39;82.62;100214.53;5133924;27;20433;-39
2021/05/05 04:36:01;;;;;;;4.70;1.87;;;;;;;5.39;81.77;100217.19;5134228;27;20027;-39
2021/05/05 04:38:26;;;;;;;6.90;1.77;;;;;;;5.40;82.19;100228.75;5138406;27;20390;-39
2021/05/05 04:40:52;;;;;;;4.83;1.67;;;;;;;5.37;81.53;100230.00;5138996;27;20030;-39
2021/05/05 04:43:17;;;;;;;5.10;1.90;;;;;;;5.37;81.72;100223.84;5138499;27;20374;-39
2021/05/05 04:45:42;;;;;;;5.33;1.57;;;;;;;5.35;81.43;100242.78;5138593;27;20501;-40
2021/05/05 04:48:08;;;;;;;6.77;1.40;;;;;;;5.38;81.25;100233.50;5137984;27;20030;-40
2021/05/05 04:50:34;;;;;;;4.80;1.63;;;;;;;5.37;81.03;100242.59;5137878;27;20038;-39
2021/05/05 04:52:59;;;;;;;5.50;1.20;;;;;;;5.33;80.59;100239.50;5138577;27;20035;-40
2021/05/05 04:55:25;;;;;;;6.40;1.80;;;;;;;5.36;80.71;100241.75;5138398;27;20023;-40
2021/05/05 04:57:50;;;;;;;2.53;1.15;;;;;;;5.35;81.07;100242.78;5137998;27;20015;-39
2021/05/05 05:00:16;;;;;;;2.60;1.20;;;;;;;5.35;80.75;100241.97;5138814;27;20131;-39
2021/05/05 05:02:41;;;;;;;4.63;1.10;;;;;;;5.33;80.56;100244.88;5137890;27;20034;-39
2021/05/05 05:05:07;;;;;;;4.50;1.40;;;;;;;5.34;80.22;100249.19;5138189;27;20110;-39
2021/05/05 05:07:33;;;;;;;5.07;1.38;;;;;;;5.36;80.92;100255.16;5137854;27;20035;-39
2021/05/05 05:09:59;;;;;;;4.37;1.40;;;;;;;5.41;80.32;100251.84;5138144;27;20030;-39
2021/05/05 05:12:25;;;;;;;5.82;1.30;;;;;;;5.38;80.68;100250.41;5137786;27;20383;-39
2021/05/05 05:14:51;;;;;;;4.20;1.38;;;;;;;5.42;80.67;100270.41;5137578;27;20038;-39
2021/05/05 05:17:17;;;;;;;4.00;1.50;;;;;;;5.40;80.70;100261.75;5138340;27;20047;-39
2021/05/05 05:19:42;;;;;;;2.03;0.90;;;;;;;5.46;80.04;100269.97;5138031;27;20466;-40
2021/05/05 05:22:08;;;;;;;3.77;0.93;;;;;;;5.49;80.02;100275.75;5137390;27;20280;-39
2021/05/05 05:24:33;;;;;;;4.30;1.10;;;;;;;5.47;79.75;100271.66;5137102;27;20148;-39
2021/05/05 05:26:58;;;;;;;3.00;1.10;;;;;;;5.49;79.78;100282.97;5137322;27;20031;-39
2021/05/05 05:29:24;;;;;;;3.00;1.03;;;;;;;5.50;80.20;100282.75;5137240;27;20031;-39
2021/05/05 05:31:49;;;;;;;2.93;1.63;;;;;;;5.53;80.08;100289.56;5137172;27;20149;-39
2021/05/05 05:34:15;;;;;;;3.87;1.00;;;;;;;5.52;80.29;100291.44;5137377;27;20374;-39
2021/05/05 05:36:41;;;;;;;4.47;1.55;;;;;;;5.48;79.87;100282.16;5137319;27;20022;-39
2021/05/05 05:39:07;;;;;;;5.20;1.10;;;;;;;5.45;79.77;100295.97;5137268;27;20447;-39
2021/05/05 05:41:32;;;;;;;4.72;1.35;;;;;;;5.37;79.73;100307.78;5138070;27;20027;-40
2021/05/05 05:43:57;;;;;;;2.90;1.10;;;;;;;5.25;78.59;100304.06;5137209;27;20501;-39
2021/05/05 05:46:23;;;;;;;6.00;1.50;;;;;;;5.16;79.60;100308.00;5137218;27;20057;-39
2021/05/05 05:48:48;;;;;;;3.23;1.10;;;;;;;5.10;80.36;100303.47;5136137;27;20058;-40
2021/05/05 05:51:14;;;;;;;2.92;1.10;;;;;;;5.03;80.69;100305.34;5136966;27;20027;-39
2021/05/05 05:53:39;;;;;;;2.10;0.93;;;;;;;5.00;80.44;100303.91;5136602;27;20448;-39
2021/05/05 05:56:06;;;;;;;3.57;1.00;;;;;;;5.01;80.60;100312.75;5137141;27;20031;-40
2021/05/05 05:58:31;;;;;;;2.88;1.00;;;;;;;5.02;81.09;100319.75;5136159;27;20049;-39
2021/05/05 06:00:56;;;;;;;6.53;1.70;;;;;;;5.02;80.72;100317.91;5136729;27;20031;-39
2021/05/05 06:03:22;;;;;;;2.70;1.10;;;;;;;5.00;80.58;100322.66;5136270;27;20130;-40
2021/05/05 06:05:47;;;;;;;2.80;1.10;;;;;;;5.01;81.28;100318.13;5136721;27;20098;-39
2021/05/05 06:08:13;;;;;;;4.33;1.33;;;;;;;5.04;81.24;100328.44;5136835;27;20417;-39
2021/05/05 06:10:39;;;;;;;3.47;1.20;;;;;;;5.05;80.54;100327.41;5136805;27;20038;-39
2021/05/05 06:13:04;;;;;;;2.37;1.13;;;;;;;5.05;81.07;100330.91;5136540;27;20436;-39
2021/05/05 06:15:30;;;;;;;5.97;1.77;;;;;;;5.05;81.68;100336.25;5136437;27;20279;-39
2021/05/05 06:17:55;;;;;;;2.97;1.37;;;;;;;5.11;81.12;100331.91;5136100;27;20047;-39
2021/05/05 06:20:21;;;;;;;5.90;1.40;;;;;;;5.19;81.76;100333.56;5136047;27;20027;-39
2021/05/05 06:22:47;;;;;;;4.07;1.40;;;;;;;5.19;81.96;100334.41;5136173;27;20019;-39
2021/05/05 06:25:12;;;;;;;;;;;;;;;5.35;81.21;100339.31;5137361;27;20023;-39
2021/05/05 06:27:37;;;;;;;5.47;1.93;;;;;;;5.36;82.62;100343.63;5136666;27;20259;-39
2021/05/05 06:30:05;;;;;;;4.20;1.50;;;;;;;5.38;82.02;100343.44;5136548;27;20355;-39
2021/05/05 06:32:31;;;;;;;6.07;2.15;;;;;;;5.46;82.42;100337.03;5136052;27;20532;-39
2021/05/05 06:34:56;;;;;;;3.53;1.50;;;;;;;5.46;82.22;100340.53;5135494;27;20031;-39
2021/05/05 06:37:22;;;;;;;4.03;1.47;;;;;;;5.47;81.49;100341.38;5135705;27;20065;-39
2021/05/05 06:39:48;;;;;;;;;;;;;;;5.55;81.08;100343.81;5136663;27;20038;-39
2021/05/05 06:42:14;;;;;;;4.45;1.73;;;;;;;5.51;81.66;100342.56;5135733;27;19915;-39
2021/05/05 06:44:39;;;;;;;5.77;1.73;;;;;;;5.49;81.50;100350.84;5135621;27;20022;-39
2021/05/05 06:47:04;;;;;;;4.07;1.40;;;;;;;5.49;82.10;100353.53;5136623;27;20367;-39
2021/05/05 06:49:33;;;;;;;5.90;1.57;;;;;;;5.43;80.81;100352.50;5136647;27;20038;-39
2021/05/05 06:51:58;;;;;;;6.05;2.22;;;;;;;5.49;81.13;100366.13;5136233;27;20409;-39
2021/05/05 06:54:23;;;;;;;6.10;1.88;;;;;;;5.54;81.28;100361.75;5135667;27;20033;-39
2021/05/05 06:56:49;;;;;;;3.60;1.83;;;;;;;5.62;81.82;100361.53;5136168;27;20035;-39
2021/05/05 06:59:14;;;;;;;6.40;1.80;;;;;;;5.75;81.44;100363.34;5136147;27;20048;-39
2021/05/05 07:01:40;;;;;;;5.67;1.93;;;;;;;5.86;81.82;100351.97;5135759;27;20051;-39
2021/05/05 07:04:10;;;;;;;;;;;;;;;6.04;80.64;100370.09;5135467;27;20141;-39
2021/05/05 07:06:36;;;;;;;6.18;1.90;;;;;;;5.93;80.58;100374.28;5135656;27;20312;-39
2021/05/05 07:09:03;;;;;;;5.32;1.60;;;;;;;5.92;80.82;100366.44;5135870;27;20115;-40
2021/05/05 07:11:28;;;;;;;3.70;1.77;;;;;;;5.88;79.69;100373.22;5134997;27;20106;-39
2021/05/05 07:13:54;;;;;;;3.83;1.60;;;;;;;5.86;80.23;100357.34;5135194;27;20100;-39
2021/05/05 07:16:21;;;;;;;4.65;1.52;;;;;;;5.90;79.94;100363.94;5135948;27;20022;-40
2021/05/05 07:18:47;;;;;;;4.05;1.42;;;;;;;5.93;80.38;100366.22;5134913;27;20045;-39
2021/05/05 07:21:12;;;;;;;4.97;1.60;;;;;;;6.04;80.54;100363.91;5135575;27;20405;-39
2021/05/05 07:23:38;;;;;;;6.27;2.13;;;;;;;6.25;80.86;100354.75;5134952;27;20053;-39
2021/05/05 07:26:03;;;;;;;5.07;1.90;;;;;;;6.45;79.35;100366.19;5135124;27;20023;-39
2021/05/05 07:28:30;;;;;;;4.82;1.90;;;;;;;6.67;80.28;100354.06;5134960;27;20159;-39
2021/05/05 07:30:56;;;;;;;4.68;1.70;;;;;;;6.92;79.39;100351.38;5135113;27;20023;-39
2021/05/05 07:33:21;;;;;;;5.80;1.73;;;;;;;7.16;78.18;100348.91;5134776;27;20027;-39
2021/05/05 07:35:53;;;;;;;4.77;1.77;;;;;;;7.34;78.48;100358.91;5134792;27;20023;-39
2021/05/05 07:41:31;;;;;;;4.73;1.70;;;;;;;7.36;76.87;100362.19;5134341;27;20047;-39
2021/05/05 07:46:56;;;;;;;6.80;2.40;;;;;;;7.16;77.62;100378.50;5134647;27;20397;-40
2021/05/05 07:49:19;;;;;;;7.63;2.00;;;;;;;7.09;77.92;100383.94;5134106;27;20110;-40
2021/05/05 07:51:45;;;;;;;9.80;2.45;;;;;;;6.96;77.32;100400.16;5134500;27;20467;-40
2021/05/05 07:54:12;;;;;;;7.20;2.53;;;;;;;6.92;77.02;100405.16;5134819;27;20027;-40
2021/05/05 07:56:38;;;;;;;6.68;2.15;;;;;;;6.90;77.42;100412.63;5134508;27;20038;-40
2021/05/05 07:59:04;;;;;;;4.90;2.07;;;;;;;6.89;77.25;100416.34;5133095;27;20023;-40
2021/05/05 08:01:30;;;;;;;;;;;;;;;6.94;76.91;100424.59;5134812;27;20099;-40
2021/05/05 08:03:56;;;;;;;7.50;2.38;;;;;;;6.81;77.06;100419.28;5134220;27;20026;-39
2021/05/05 08:06:21;;;;;;;;;;;;;;;6.88;77.39;100425.47;5135583;27;20084;-40
2021/05/05 08:08:47;;;;;;;8.55;2.13;;;;;;;6.88;78.12;100436.22;5133968;27;20305;-40
2021/05/05 08:11:13;;;;;;;8.50;2.17;;;;;;;6.84;78.50;100450.31;5133472;27;20049;-40
2021/05/05 08:13:39;;;;;;;8.50;1.98;;;;;;;6.62;77.29;100468.59;5134830;27;20076;-40
2021/05/05 08:16:06;;;;;;;5.13;1.42;;;;;;;6.20;77.05;100465.47;5134543;27;20031;-40
2021/05/05 08:18:32;;;;;;;3.03;1.30;;;;;;;6.03;78.54;100465.09;5134049;27;20095;-40
2021/05/05 08:21:00;;;;;;;4.38;1.30;;;;;;;5.90;79.00;100463.25;5134245;27;20023;-38
2021/05/05 08:23:26;;;;;;;2.08;1.00;;;;;;;5.76;79.66;100477.72;5133812;27;20019;-39
2021/05/05 08:25:51;;;;;;;4.63;1.10;;;;;;;5.68;79.00;100475.22;5134265;27;20019;-39
2021/05/05 08:28:16;;;;;;;2.83;1.00;;;;;;;5.56;80.08;100475.03;5134786;27;20102;-39
2021/05/05 08:30:42;;;;;;;2.27;0.80;;;;;;;5.57;79.23;100451.72;5134216;27;20027;-40
2021/05/05 08:33:08;;;;;;;3.35;1.20;;;;;;;5.66;79.78;100455.81;5134333;27;20035;-40
2021/05/05 08:35:34;;;;;;;3.95;1.25;;;;;;;5.79;79.39;100447.75;5134692;27;20042;-40
2021/05/05 08:37:59;;;;;;;4.87;1.30;;;;;;;6.05;79.27;100451.44;5134401;27;20371;-40
2021/05/05 08:40:24;;;;;;;5.07;2.00;;;;;;;6.23;79.36;100445.41;5134505;27;20279;-40
2021/05/05 08:42:50;;;;;;;5.50;1.73;;;;;;;6.31;78.10;100459.44;5134254;27;20024;-40
2021/05/05 08:45:22;;;;;;;9.30;2.00;;;;;;;6.51;78.99;100458.53;5134302;27;20015;-40
2021/05/05 08:47:49;;;;;;;5.70;2.08;;;;;;;6.71;79.04;100456.56;5134329;27;20019;-40
2021/05/05 08:50:16;;;;;;;7.97;2.30;;;;;;;6.95;78.52;100468.41;5134382;27;20156;-40
2021/05/05 08:52:43;;;;;;;17.80;3.53;;;;;;;7.05;77.81;100466.06;5133714;27;20035;-39
2021/05/05 08:55:10;;;;;;;7.57;1.80;;;;;;;7.22;76.80;100471.75;5134577;27;20061;-39
2021/05/05 08:57:35;;;;;;;9.07;2.97;;;;;;;7.41;75.99;100468.06;5133936;27;20423;-40
2021/05/05 09:00:09;;;;;;;8.97;2.43;;;;;;;7.54;76.11;100466.34;5133296;28;20111;-40
2021/05/05 09:02:35;;;;;;;8.82;2.47;;;;;;;7.62;76.48;100466.88;5133727;27;20288;-40
2021/05/05 09:05:07;;;;;;;8.52;2.70;;;;;;;7.81;73.54;100480.34;5134927;27;20037;-40
2021/05/05 09:07:34;;;;;;;6.88;2.30;;;;;;;7.99;71.89;100464.25;5134540;27;20419;-40
2021/05/05 09:10:09;;;;;;;10.18;2.22;;;;;;;8.03;70.64;100492.38;5133558;27;20042;-38
2021/05/05 09:12:37;;;;;;;9.93;2.20;;;;;;;7.98;68.12;100487.66;5133585;27;20407;-39
2021/05/05 09:15:06;;;;;;;7.32;2.10;;;;;;;7.85;70.54;100490.47;5133417;27;20027;-39
2021/05/05 09:17:34;;;;;;;6.28;1.95;;;;;;;7.77;71.49;100498.03;5133899;27;20451;-39
2021/05/05 09:20:06;;;;;;;6.72;1.88;;;;;;;7.62;72.80;100504.56;5133421;27;20039;-39
2021/05/05 09:22:49;;;;;;;7.57;1.60;;;;;;;7.45;74.35;100495.38;5134975;27;20051;-39
2021/05/05 09:25:18;;;;;;;7.22;2.33;;;;;;;7.28;74.30;100507.72;5138256;27;20034;-39
2021/05/05 09:27:44;;;;;;;10.02;3.53;;;;;;;7.11;75.95;100512.78;5137445;27;20022;-39
2021/05/05 09:30:20;;;;;;;4.90;1.90;;;;;;;6.95;76.39;100512.25;5137769;27;20015;-39
2021/05/05 09:32:48;;;;;;;6.70;2.08;;;;;;;6.90;76.64;100519.31;5136956;27;20027;-40
2021/05/05 09:35:14;;;;;;;7.38;2.55;;;;;;;6.92;78.34;100530.66;5137894;27;20034;-39
2021/05/05 09:37:39;;;;;;;6.00;2.10;;;;;;;7.04;78.96;100536.19;5137044;27;20019;-39
2021/05/05 09:40:06;;;;;;;8.03;2.87;;;;;;;7.27;77.23;100533.78;5136184;27;20527;-39
2021/05/05 09:42:33;;;;;;;13.98;3.45;;;;;;;7.39;75.16;100528.53;5137082;27;20379;-40
2021/05/05 09:45:11;;;;;;;4.97;1.85;;;;;;;7.45;74.88;100525.78;5137452;27;20027;-39
2021/05/05 09:47:56;;;;;;;7.63;2.10;;;;;;;7.47;73.34;100539.88;5137579;27;20057;-40
2021/05/05 09:50:32;;;;;;;9.50;2.20;;;;;;;7.58;72.99;100545.59;5137000;27;20471;-40
2021/05/05 09:53:14;;;;;;;8.30;2.50;;;;;;;7.70;71.87;100551.88;5136881;27;20039;-40
2021/05/05 09:55:40;;;;;;;8.00;2.20;;;;;;;7.83;71.90;100549.09;5136711;27;20463;-40
2021/05/05 09:58:25;;;;;;;5.57;1.95;;;;;;;7.87;71.01;100587.19;5136500;27;20047;-39
2021/05/05 10:01:03;;;;;;;3.75;1.33;;;;;;;7.45;71.53;100608.38;5136816;27;20489;-40
2021/05/05 10:03:51;;;;;;;2.58;1.15;;;;;;;6.99;71.84;100597.84;5137281;27;20079;-39
2021/05/05 10:06:32;;;;;;;1.92;0.70;;;;;;;6.66;73.71;100601.47;5137284;27;20038;-40
2021/05/05 10:09:06;;;;;;;2.22;0.70;;;;;;;6.51;73.41;100608.97;5136713;27;20027;-38
2021/05/05 10:11:34;;;;;;;2.20;0.77;;;;;;;6.47;73.84;100615.78;5137476;27;20031;-38
2021/05/05 10:14:02;;;;;;;5.93;1.05;;;;;;;6.74;75.57;100616.56;5136539;27;20045;-38
2021/05/05 10:16:31;;;;;;;3.42;1.20;;;;;;;7.04;74.77;100623.06;5136809;27;20106;-39
2021/05/05 10:18:57;;;;;;;2.20;0.70;;;;;;;7.41;74.15;100618.72;5136906;27;20387;-38
2021/05/05 10:21:24;;;;;;;2.08;0.90;;;;;;;7.68;73.96;100616.72;5136097;27;20042;-38
2021/05/05 10:23:52;;;;;;;4.63;1.40;;;;;;;8.03;74.44;100626.19;5136312;27;20072;-38
2021/05/05 10:26:21;;;;;;;4.10;1.40;;;;;;;8.13;74.03;100637.28;5136305;27;20106;-39
2021/05/05 10:28:48;;;;;;;5.35;2.13;;;;;;;8.36;71.94;100640.25;5136210;27;20067;-39
2021/05/05 10:31:17;;;;;;;4.65;1.30;;;;;;;8.21;72.32;100635.16;5136175;27;20488;-38
2021/05/05 10:33:46;;;;;;;3.45;1.10;;;;;;;7.99;73.23;100640.09;5135701;27;20467;-38
2021/05/05 10:36:29;;;;;;;3.20;1.10;;;;;;;8.18;72.57;100646.34;5136412;27;20027;-39
2021/05/05 10:38:55;;;;;;;5.78;1.50;;;;;;;8.38;71.06;100650.78;5135994;27;20027;-40
2021/05/05 10:41:22;;;;;;;5.03;1.10;;;;;;;8.54;70.25;100652.94;5136128;27;20050;-40
2021/05/05 10:43:50;;;;;;;;;;;;;;;8.78;69.37;100645.81;5136332;27;20076;-40
2021/05/05 10:46:35;;;;;;;5.65;1.50;;;;;;;8.83;68.56;100658.63;5136481;27;20309;-39
2021/05/05 10:49:05;;;;;;;4.55;1.08;;;;;;;8.94;68.34;100649.81;5136336;27;20027;-39
2021/05/05 10:51:45;;;;;;;6.80;1.50;;;;;;;9.20;68.78;100656.75;5136309;27;20121;-39
2021/05/05 10:54:15;;;;;;;4.45;1.27;;;;;;;9.46;67.91;100650.19;5135712;27;20030;-39
2021/05/05 10:56:44;;;;;;;5.95;1.60;;;;;;;9.54;65.77;100645.31;5136543;27;20019;-40
2021/05/05 10:59:11;;;;;;;3.92;1.05;;;;;;;9.42;65.86;100659.78;5135236;27;20031;-40
2021/05/05 11:01:42;;;;;;;6.55;1.92;;;;;;;9.28;66.40;100656.47;5136161;27;20023;-40
2021/05/05 11:04:13;;;;;;;3.22;1.23;;;;;;;9.02;67.04;100679.97;5135741;27;20114;-40
2021/05/05 11:06:39;;;;;;;5.82;1.83;;;;;;;8.64;70.62;100690.97;5136330;27;20358;-40
2021/05/05 11:09:16;;;;;;;;;;;;;;;8.52;71.05;100700.81;5136165;27;20027;-40
2021/05/05 11:11:41;;;;;;;6.18;1.48;;;;;;;8.10;74.11;100695.13;5135674;27;19907;-38
2021/05/05 11:14:07;;;;;;;4.83;1.87;;;;;;;8.19;74.37;100698.34;5135098;27;20023;-38
2021/05/05 11:16:59;;;;;;;6.78;2.00;;;;;;;8.61;74.71;100693.28;5135604;27;20335;-38
2021/05/05 11:19:42;;;;;;;7.05;2.00;;;;;;;8.98;73.54;100697.69;5126866;27;20081;-39
2021/05/05 11:22:32;;;;;;;5.72;2.05;;;;;;;9.15;71.15;100713.28;5134124;27;20485;-39
2021/05/05 11:24:58;;;;;;;10.02;2.25;;;;;;;8.89;70.51;100722.47;5125616;27;20047;-39
2021/05/05 11:27:48;;;;;;;6.35;1.42;;;;;;;8.47;71.52;100755.38;5135439;27;20027;-39
2021/05/05 11:30:32;;;;;;;2.00;0.70;;;;;;;7.93;70.99;100756.75;5135008;27;20015;-38
2021/05/05 11:32:58;;;;;;;1.88;0.95;;;;;;;7.61;71.52;100749.66;5135553;27;20023;-38
2021/05/05 11:35:29;;;;;;;2.60;0.95;;;;;;;7.45;72.72;100759.03;5135339;27;20027;-38
2021/05/05 11:38:19;;;;;;;3.15;0.88;;;;;;;7.43;73.56;100771.88;5135429;27;20060;-38
2021/05/05 11:41:02;;;;;;;4.78;1.10;;;;;;;7.36;73.36;100777.25;5135488;27;20058;-38
2021/05/05 11:43:29;;;;;;;4.60;1.20;;;;;;;7.39;73.14;100771.47;5134569;27;20019;-39